createdAt,value
2023-05-01T00:02:14.264Z,13.82
2023-05-01T00:04:42.012Z,13.83
2023-05-01T00:07:09.808Z,13.52
2023-05-01T00:09:37.375Z,13.42
2023-05-01T00:12:06.158Z,13.27
2023-05-01T00:14:35.022Z,13.57
2023-05-01T00:17:02.993Z,13.62
2023-05-01T00:19:32.040Z,13.49
2023-05-01T00:22:02.153Z,13.29
2023-05-01T00:24:29.724Z,13.20
2023-05-01T00:26:57.304Z,13.23
2023-05-01T00:29:25.573Z,13.23
2023-05-01T00:31:54.421Z,13.22
2023-05-01T00:34:22.077Z,13.34
2023-05-01T00:36:51.236Z,13.28
2023-05-01T00:39:18.879Z,13.16
2023-05-01T00:41:46.515Z,13.12
2023-05-01T00:44:14.123Z,13.29
2023-05-01T00:46:41.780Z,13.23
2023-05-01T00:49:09.885Z,13.20
2023-05-01T00:51:37.693Z,13.25
2023-05-01T00:54:06.898Z,13.12
2023-05-01T00:56:34.882Z,13.02
2023-05-01T00:59:03.240Z,13.11
2023-05-01T01:01:31.044Z,13.27
2023-05-01T01:04:00.015Z,13.15
2023-05-01T01:06:36.419Z,13.21
2023-05-01T01:09:22.337Z,12.99
2023-05-01T01:12:03.141Z,12.86
2023-05-01T01:14:36.450Z,12.81
2023-05-01T01:17:13.715Z,12.79
2023-05-01T01:20:17.280Z,12.92
2023-05-01T01:22:51.183Z,12.84
2023-05-01T01:26:03.119Z,12.47
2023-05-01T01:28:55.803Z,12.46
2023-05-01T01:31:32.862Z,12.40
2023-05-01T01:34:12.983Z,12.50
2023-05-01T01:36:49.088Z,12.49
2023-05-01T01:39:30.054Z,12.66
2023-05-01T01:41:58.814Z,12.65
2023-05-01T01:44:34.018Z,12.69
2023-05-01T01:47:06.012Z,12.69
2023-05-01T01:49:40.389Z,12.89
2023-05-01T01:52:13.110Z,12.84
2023-05-01T01:54:44.835Z,12.71
2023-05-01T01:57:16.967Z,12.61
2023-05-01T01:59:48.324Z,12.46
2023-05-01T02:02:19.728Z,12.43
2023-05-01T02:04:51.579Z,12.42
2023-05-01T02:07:21.710Z,12.59
2023-05-01T02:09:53.582Z,12.73
2023-05-01T02:12:25.392Z,12.64
2023-05-01T02:14:54.255Z,12.66
2023-05-01T02:17:22.492Z,12.58
2023-05-01T02:19:53.356Z,12.61
2023-05-01T02:22:23.889Z,12.58
2023-05-01T02:24:54.147Z,12.68
2023-05-01T02:27:26.663Z,12.60
2023-05-01T02:29:54.608Z,12.51
2023-05-01T02:32:22.908Z,12.51
2023-05-01T02:34:52.331Z,12.53
2023-05-01T02:37:21.041Z,12.55
2023-05-01T02:39:49.040Z,12.51
2023-05-01T02:42:21.903Z,12.49
2023-05-01T02:44:56.943Z,12.58
2023-05-01T02:47:28.456Z,12.64
2023-05-01T02:50:00.134Z,12.68
2023-05-01T02:52:29.728Z,12.70
2023-05-01T02:54:57.808Z,12.77
2023-05-01T02:57:25.927Z,12.62
2023-05-01T02:59:53.660Z,12.57
2023-05-01T03:02:21.565Z,12.77
2023-05-01T03:04:49.180Z,12.89
2023-05-01T03:07:18.155Z,13.10
2023-05-01T03:09:45.875Z,13.30
2023-05-01T03:12:13.462Z,13.70
2023-05-01T03:14:42.464Z,13.62
2023-05-01T03:17:10.068Z,14.29
2023-05-01T03:19:37.716Z,14.58
2023-05-01T03:22:05.497Z,14.64
2023-05-01T03:24:34.504Z,14.44
2023-05-01T03:27:02.079Z,14.39
2023-05-01T03:29:29.714Z,13.75
2023-05-01T03:31:57.293Z,13.68
2023-05-01T03:34:26.072Z,14.24
2023-05-01T03:36:53.759Z,14.37
2023-05-01T03:39:21.775Z,14.22
2023-05-01T03:41:50.971Z,14.64
2023-05-01T03:44:18.609Z,14.62
2023-05-01T03:46:46.373Z,14.01
2023-05-01T03:49:14.190Z,14.66
2023-05-01T03:51:41.759Z,14.97
2023-05-01T03:54:09.620Z,15.09
2023-05-01T03:56:37.422Z,14.69
2023-05-01T03:59:06.589Z,14.97
2023-05-01T04:01:34.177Z,15.01
2023-05-01T04:04:02.215Z,14.67
2023-05-01T04:06:30.348Z,14.06
2023-05-01T04:08:58.079Z,14.11
2023-05-01T04:11:25.767Z,14.98
2023-05-01T04:13:53.581Z,14.96
2023-05-01T04:16:22.786Z,14.11
2023-05-01T04:18:51.490Z,14.37
2023-05-01T04:21:19.435Z,14.83
2023-05-01T04:23:48.203Z,14.52
2023-05-01T04:26:15.775Z,14.17
2023-05-01T04:28:43.473Z,13.72
2023-05-01T04:31:11.173Z,13.29
2023-05-01T04:33:40.422Z,12.94
2023-05-01T04:36:08.632Z,12.89
2023-05-01T04:38:37.372Z,12.80
2023-05-01T04:41:05.495Z,13.24
2023-05-01T04:43:33.186Z,13.33
2023-05-01T04:46:00.895Z,12.73
2023-05-01T04:48:28.558Z,12.94
2023-05-01T04:50:57.523Z,12.76
2023-05-01T04:53:27.727Z,12.30
2023-05-01T04:55:55.344Z,12.18
2023-05-01T04:58:23.112Z,12.34
2023-05-01T05:00:50.817Z,12.02
2023-05-01T05:03:18.544Z,12.01
2023-05-01T05:05:46.615Z,12.02
2023-05-01T05:08:15.731Z,12.07
2023-05-01T05:10:44.158Z,11.95
2023-05-01T05:13:11.866Z,12.02
2023-05-01T05:15:40.065Z,11.87
2023-05-01T05:18:07.864Z,11.83
2023-05-01T05:20:38.351Z,11.80
2023-05-01T05:23:08.609Z,11.84
2023-05-01T05:25:40.725Z,11.79
2023-05-01T05:28:08.883Z,11.58
2023-05-01T05:30:36.672Z,11.64
2023-05-01T05:33:04.651Z,11.56
2023-05-01T05:35:32.809Z,11.55
2023-05-01T05:38:00.544Z,11.57
2023-05-01T05:40:28.453Z,11.90
2023-05-01T05:42:57.416Z,11.60
2023-05-01T05:45:25.429Z,11.66
2023-05-01T05:47:53.074Z,11.66
2023-05-01T05:50:20.828Z,11.84
2023-05-01T05:52:48.608Z,11.84
2023-05-01T05:55:16.411Z,12.12
2023-05-01T05:57:44.145Z,12.14
2023-05-01T06:00:14.442Z,12.38
2023-05-01T06:02:46.742Z,12.61
2023-05-01T06:05:14.753Z,12.42
2023-05-01T06:07:42.450Z,12.62
2023-05-01T06:10:11.519Z,12.53
2023-05-01T06:12:39.941Z,12.32
2023-05-01T06:15:17.828Z,12.07
2023-05-01T06:17:45.904Z,12.01
2023-05-01T06:20:13.851Z,11.98
2023-05-01T06:22:41.486Z,11.82
2023-05-01T06:25:11.909Z,11.76
2023-05-01T06:27:39.743Z,11.89
2023-05-01T06:30:08.719Z,11.88
2023-05-01T06:32:37.839Z,11.91
2023-05-01T06:35:06.492Z,11.78
2023-05-01T06:37:34.301Z,11.90
2023-05-01T06:40:04.314Z,11.81
2023-05-01T06:42:31.998Z,11.93
2023-05-01T06:44:59.665Z,11.86
2023-05-01T06:47:27.420Z,11.96
2023-05-01T06:49:57.773Z,11.87
2023-05-01T06:52:25.918Z,11.79
2023-05-01T06:54:53.600Z,11.82
2023-05-01T06:57:21.527Z,11.79
2023-05-01T06:59:49.329Z,11.82
2023-05-01T07:02:17.098Z,11.72
2023-05-01T07:04:44.827Z,11.54
2023-05-01T07:07:13.764Z,11.53
2023-05-01T07:09:41.646Z,11.70
2023-05-01T07:12:09.366Z,11.98
2023-05-01T07:15:05.336Z,12.08
2023-05-01T07:17:33.255Z,12.20
2023-05-01T07:20:00.982Z,12.56
2023-05-01T07:22:30.099Z,12.80
2023-05-01T07:24:57.942Z,12.74
2023-05-01T07:27:25.857Z,12.54
2023-05-01T07:29:56.003Z,12.74
2023-05-01T07:32:24.258Z,12.68
2023-05-01T07:34:52.074Z,13.04
2023-05-01T07:37:19.770Z,12.81
2023-05-01T07:39:48.800Z,12.30
2023-05-01T07:42:16.484Z,12.49
2023-05-01T07:44:44.398Z,12.50
2023-05-01T07:47:12.039Z,12.38
2023-05-01T07:49:39.690Z,12.34
2023-05-01T07:52:07.530Z,12.16
2023-05-01T07:54:35.488Z,12.26
2023-05-01T07:57:08.649Z,12.44
2023-05-01T07:59:38.158Z,12.10
2023-05-01T08:02:05.821Z,12.31
2023-05-01T08:04:33.621Z,11.77
2023-05-01T08:07:02.480Z,11.72
2023-05-01T08:09:30.339Z,11.87
2023-05-01T08:11:58.031Z,11.83
2023-05-01T08:14:27.197Z,11.59
2023-05-01T08:16:54.852Z,11.66
2023-05-01T08:19:22.579Z,11.73
2023-05-01T08:21:50.427Z,11.53
2023-05-01T08:24:18.077Z,11.55
2023-05-01T08:26:45.930Z,11.45
2023-05-01T08:29:13.585Z,11.32
2023-05-01T08:31:43.069Z,11.26
2023-05-01T08:34:10.803Z,11.42
2023-05-01T08:36:38.457Z,11.43
2023-05-01T08:39:06.122Z,11.42
2023-05-01T08:41:36.615Z,11.56
2023-05-01T08:44:05.101Z,11.73
2023-05-01T08:46:41.485Z,12.41
2023-05-01T08:49:13.884Z,12.09
2023-05-01T08:51:44.086Z,12.03
2023-05-01T08:54:13.585Z,11.77
2023-05-01T08:56:46.684Z,12.09
2023-05-01T08:59:14.796Z,12.17
2023-05-01T09:01:44.699Z,12.65
2023-05-01T09:04:14.872Z,13.35
2023-05-01T09:06:42.710Z,14.02
2023-05-01T09:09:10.508Z,14.49
2023-05-01T09:11:39.354Z,14.60
2023-05-01T09:14:07.085Z,14.84
2023-05-01T09:16:34.774Z,14.93
2023-05-01T09:19:02.578Z,14.56
2023-05-01T09:21:31.908Z,14.26
2023-05-01T09:23:59.500Z,14.33
2023-05-01T09:26:27.413Z,14.35
2023-05-01T09:28:55.253Z,14.15
2023-05-01T09:31:24.996Z,14.19
2023-05-01T09:33:54.844Z,14.27
2023-05-01T09:36:24.097Z,14.33
2023-05-01T09:38:53.629Z,14.16
2023-05-01T09:41:21.420Z,13.70
2023-05-01T09:43:50.655Z,14.20
2023-05-01T09:46:18.859Z,13.81
2023-05-01T09:48:54.056Z,13.62
2023-05-01T09:51:24.133Z,14.03
2023-05-01T09:53:54.602Z,14.20
2023-05-01T09:56:22.605Z,14.64
2023-05-01T09:58:51.557Z,14.18
2023-05-01T10:01:38.017Z,14.44
2023-05-01T10:04:14.966Z,14.16
2023-05-01T10:06:43.253Z,14.25
2023-05-01T10:09:10.979Z,14.47
2023-05-01T10:11:48.103Z,13.97
2023-05-01T10:14:16.305Z,14.23
2023-05-01T10:16:45.051Z,14.04
2023-05-01T10:19:13.023Z,14.38
2023-05-01T10:21:42.157Z,14.53
2023-05-01T10:24:10.472Z,15.00
2023-05-01T10:26:38.311Z,14.53
2023-05-01T10:29:06.115Z,14.50
2023-05-01T10:31:33.837Z,14.10
2023-05-01T10:34:03.546Z,14.60
2023-05-01T10:36:37.688Z,14.07
2023-05-01T10:39:06.747Z,14.63
2023-05-01T10:42:03.224Z,14.06
2023-05-01T10:44:32.044Z,13.51
2023-05-01T10:46:59.845Z,13.71
2023-05-01T10:50:00.650Z,13.57
2023-05-01T10:52:28.433Z,14.23
2023-05-01T10:55:31.975Z,13.26
2023-05-01T10:58:01.937Z,13.26
2023-05-01T11:00:30.562Z,12.74
2023-05-01T11:03:31.700Z,13.14
2023-05-01T11:06:05.954Z,13.15
2023-05-01T11:08:36.226Z,13.49
2023-05-01T11:11:40.924Z,12.97
2023-05-01T11:14:09.852Z,12.90
2023-05-01T11:16:41.220Z,13.26
2023-05-01T11:19:10.952Z,13.28
2023-05-01T11:21:39.832Z,14.40
2023-05-01T11:24:08.085Z,14.00
2023-05-01T11:26:38.412Z,13.52
2023-05-01T11:29:07.010Z,13.35
2023-05-01T11:31:37.034Z,12.94
2023-05-01T11:34:05.896Z,13.24
2023-05-01T11:36:48.230Z,13.97
2023-05-01T11:39:16.775Z,14.42
2023-05-01T11:41:45.021Z,15.42
2023-05-01T11:44:15.649Z,15.59
2023-05-01T11:46:45.052Z,16.10
2023-05-01T11:49:12.974Z,16.37
2023-05-01T11:51:40.817Z,16.92
2023-05-01T11:54:10.563Z,15.89
2023-05-01T11:56:38.527Z,15.98
2023-05-01T11:59:12.810Z,15.73
2023-05-01T12:01:44.649Z,15.28
2023-05-01T12:04:22.754Z,14.74
2023-05-01T12:06:52.150Z,15.19
2023-05-01T12:09:22.393Z,15.27
2023-05-01T12:11:52.703Z,15.33
2023-05-01T12:14:23.126Z,15.37
2023-05-01T12:16:56.281Z,15.44
2023-05-01T12:19:25.364Z,15.01
2023-05-01T12:22:07.504Z,15.60
2023-05-01T12:24:35.445Z,15.73
2023-05-01T12:27:03.409Z,16.54
2023-05-01T12:29:39.722Z,17.27
2023-05-01T12:32:09.274Z,15.43
2023-05-01T12:34:37.273Z,16.80
2023-05-01T12:37:05.481Z,16.82
2023-05-01T12:39:37.859Z,16.11
2023-05-01T12:42:12.693Z,16.12
2023-05-01T12:44:42.688Z,15.88
2023-05-01T12:47:12.823Z,16.12
2023-05-01T12:49:42.276Z,16.76
2023-05-01T12:52:10.108Z,15.35
2023-05-01T12:54:40.179Z,15.31
2023-05-01T12:57:10.379Z,16.08
2023-05-01T12:59:39.700Z,15.57
2023-05-01T13:02:09.800Z,15.62
2023-05-01T13:04:39.396Z,16.58
2023-05-01T13:07:12.116Z,17.03
2023-05-01T13:09:39.801Z,16.55
2023-05-01T13:12:09.858Z,15.48
2023-05-01T13:14:39.564Z,15.11
2023-05-01T13:17:09.881Z,14.31
2023-05-01T13:19:39.180Z,15.12
2023-05-01T13:22:07.053Z,15.62
2023-05-01T13:24:38.873Z,15.14
2023-05-01T13:27:08.535Z,14.64
2023-05-01T13:29:36.596Z,13.82
2023-05-01T13:32:06.108Z,13.68
2023-05-01T13:34:34.789Z,13.87
2023-05-01T13:37:04.061Z,13.87
2023-05-01T13:39:31.698Z,13.93
2023-05-01T13:42:03.032Z,14.00
2023-05-01T13:44:30.966Z,14.08
2023-05-01T13:47:02.755Z,14.05
2023-05-01T13:49:30.287Z,13.84
2023-05-01T13:51:58.000Z,13.59
2023-05-01T13:54:27.046Z,13.53
2023-05-01T13:56:54.873Z,13.91
2023-05-01T13:59:22.566Z,14.07
2023-05-01T14:01:50.608Z,14.46
2023-05-01T14:04:19.994Z,14.87
2023-05-01T14:06:48.157Z,14.57
2023-05-01T14:09:17.575Z,14.43
2023-05-01T14:11:48.430Z,13.79
2023-05-01T14:14:17.864Z,13.34
2023-05-01T14:16:51.832Z,13.42
2023-05-01T14:19:19.509Z,13.35
2023-05-01T14:21:47.183Z,12.99
2023-05-01T14:24:15.766Z,13.24
2023-05-01T14:26:44.441Z,13.14
2023-05-01T14:29:23.107Z,13.90
2023-05-01T14:31:50.839Z,14.04
2023-05-01T14:34:18.695Z,14.07
2023-05-01T14:36:46.410Z,14.30
2023-05-01T14:39:15.341Z,14.55
2023-05-01T14:41:43.044Z,14.22
2023-05-01T14:44:15.561Z,14.06
2023-05-01T14:46:46.882Z,14.02
2023-05-01T14:49:19.241Z,13.81
2023-05-01T14:51:47.232Z,13.72
2023-05-01T14:54:15.470Z,14.28
2023-05-01T14:56:43.813Z,13.93
2023-05-01T14:59:11.388Z,13.82
2023-05-01T15:01:39.110Z,13.72
2023-05-01T15:04:08.216Z,13.83
2023-05-01T15:06:36.177Z,13.70
2023-05-01T15:09:04.108Z,14.00
2023-05-01T15:11:31.659Z,14.07
2023-05-01T15:13:59.238Z,14.09
2023-05-01T15:16:27.038Z,14.07
2023-05-01T15:18:54.760Z,14.25
2023-05-01T15:21:23.735Z,14.03
2023-05-01T15:23:51.383Z,13.59
2023-05-01T15:26:19.038Z,14.26
2023-05-01T15:28:46.712Z,14.31
2023-05-01T15:31:14.327Z,14.36
2023-05-01T15:33:41.911Z,14.67
2023-05-01T15:36:09.443Z,14.89
2023-05-01T15:38:38.329Z,14.65
2023-05-01T15:41:05.980Z,15.02
2023-05-01T15:43:33.628Z,15.18
2023-05-01T15:46:01.358Z,15.43
2023-05-01T15:48:29.201Z,14.96
2023-05-01T15:50:56.862Z,14.30
2023-05-01T15:53:24.463Z,14.63
2023-05-01T15:55:56.262Z,14.55
2023-05-01T15:58:24.766Z,14.15
2023-05-01T16:00:52.448Z,14.09
2023-05-01T16:03:20.437Z,14.30
2023-05-01T16:05:48.237Z,15.35
2023-05-01T16:08:17.604Z,15.88
2023-05-01T16:10:46.928Z,15.27
2023-05-01T16:13:16.504Z,15.19
2023-05-01T16:15:44.081Z,15.74
2023-05-01T16:18:19.770Z,15.94
2023-05-01T16:20:47.326Z,16.37
2023-05-01T16:23:15.329Z,16.32
2023-05-01T16:25:43.447Z,16.29
2023-05-01T16:28:12.178Z,16.63
2023-05-01T16:30:43.259Z,15.28
2023-05-01T16:33:18.389Z,14.58
2023-05-01T16:35:48.081Z,14.41
2023-05-01T16:38:18.079Z,14.26
2023-05-01T16:40:47.194Z,13.73
2023-05-01T16:43:15.773Z,13.66
2023-05-01T16:45:44.930Z,13.98
2023-05-01T16:48:18.292Z,14.10
2023-05-01T16:50:46.154Z,13.74
2023-05-01T16:53:14.172Z,13.60
2023-05-01T16:55:41.866Z,14.01
2023-05-01T16:58:09.580Z,14.92
2023-05-01T17:00:38.411Z,15.22
2023-05-01T17:03:07.470Z,15.21
2023-05-01T17:05:35.228Z,15.53
2023-05-01T17:08:03.333Z,15.39
2023-05-01T17:10:31.505Z,14.88
2023-05-01T17:13:00.710Z,13.77
2023-05-01T17:15:28.329Z,13.65
2023-05-01T17:17:56.122Z,13.87
2023-05-01T17:20:25.138Z,13.77
2023-05-01T17:22:52.804Z,14.02
2023-05-01T17:25:20.410Z,13.98
2023-05-01T17:27:47.939Z,13.97
2023-05-01T17:30:15.770Z,13.90
2023-05-01T17:32:43.446Z,14.48
2023-05-01T17:35:11.155Z,14.28
2023-05-01T17:37:40.104Z,14.12
2023-05-01T17:40:09.203Z,14.20
2023-05-01T17:42:36.806Z,14.03
2023-05-01T17:45:06.284Z,14.07
2023-05-01T17:47:33.865Z,14.16
2023-05-01T17:50:02.822Z,13.99
2023-05-01T17:52:30.659Z,13.96
2023-05-01T17:54:59.953Z,13.98
2023-05-01T17:57:27.570Z,14.42
2023-05-01T17:59:55.416Z,14.19
2023-05-01T18:02:24.492Z,14.57
2023-05-01T18:04:52.684Z,14.20
2023-05-01T18:07:20.321Z,14.24
2023-05-01T18:09:48.025Z,13.82
2023-05-01T18:12:17.026Z,13.70
2023-05-01T18:14:44.712Z,13.60
2023-05-01T18:17:12.661Z,13.61
2023-05-01T18:19:40.382Z,13.56
2023-05-01T18:22:08.014Z,13.47
2023-05-01T18:24:35.928Z,13.52
2023-05-01T18:27:04.693Z,13.53
2023-05-01T18:29:33.684Z,13.59
2023-05-01T18:32:01.624Z,13.62
2023-05-01T18:34:29.606Z,13.67
2023-05-01T18:36:57.525Z,13.66
2023-05-01T18:39:25.275Z,13.57
2023-05-01T18:41:54.762Z,13.72
2023-05-01T18:44:22.500Z,13.82
2023-05-01T18:46:51.582Z,13.55
2023-05-01T18:49:19.330Z,13.44
2023-05-01T18:51:46.994Z,13.46
2023-05-01T18:54:14.655Z,13.41
2023-05-01T18:56:42.632Z,13.41
2023-05-01T18:59:10.332Z,13.38
2023-05-01T19:01:38.159Z,13.32
2023-05-01T19:04:07.462Z,13.23
2023-05-01T19:06:35.196Z,13.32
2023-05-01T19:09:03.032Z,13.36
2023-05-01T19:11:30.676Z,13.43
2023-05-01T19:13:58.783Z,13.58
2023-05-01T19:16:26.657Z,13.67
2023-05-01T19:18:55.855Z,13.81
2023-05-01T19:21:25.430Z,13.90
2023-05-01T19:23:53.196Z,13.82
2023-05-01T19:26:20.827Z,13.81
2023-05-01T19:28:51.330Z,13.76
2023-05-01T19:31:19.006Z,13.89
2023-05-01T19:33:47.102Z,14.01
2023-05-01T19:36:14.931Z,14.45
2023-05-01T19:38:44.386Z,15.24
2023-05-01T19:41:12.121Z,15.51
2023-05-01T19:43:39.659Z,15.67
2023-05-01T19:46:07.837Z,15.64
2023-05-01T19:48:35.558Z,15.42
2023-05-01T19:51:03.381Z,15.75
2023-05-01T19:53:31.150Z,15.57
2023-05-01T19:56:00.162Z,15.91
2023-05-01T19:58:27.936Z,15.93
2023-05-01T20:00:57.002Z,15.95
2023-05-01T20:03:25.008Z,16.12
2023-05-01T20:05:52.724Z,15.57
2023-05-01T20:08:20.550Z,15.57
2023-05-01T20:10:48.232Z,16.11
2023-05-01T20:13:17.293Z,16.09
2023-05-01T20:15:44.859Z,16.23
2023-05-01T20:18:12.470Z,15.92
2023-05-01T20:20:40.110Z,16.13
2023-05-01T20:23:11.957Z,16.23
2023-05-01T20:25:39.567Z,16.10
2023-05-01T20:28:09.131Z,16.65
2023-05-01T20:30:40.001Z,16.65
2023-05-01T20:33:07.691Z,16.79
2023-05-01T20:35:35.681Z,16.67
2023-05-01T20:38:03.648Z,15.71
2023-05-01T20:40:31.383Z,15.97
2023-05-01T20:43:00.348Z,16.04
2023-05-01T20:45:28.585Z,15.71
2023-05-01T20:47:58.220Z,15.78
2023-05-01T20:50:26.723Z,15.43
2023-05-01T20:52:55.105Z,15.57
2023-05-01T20:55:23.354Z,15.64
2023-05-01T20:57:50.915Z,15.11
2023-05-01T21:00:18.910Z,15.23
2023-05-01T21:02:46.669Z,15.07
2023-05-01T21:05:15.679Z,15.15
2023-05-01T21:07:43.284Z,14.94
2023-05-01T21:10:12.163Z,15.40
2023-05-01T21:12:40.287Z,15.50
2023-05-01T21:15:09.560Z,15.53
2023-05-01T21:17:39.978Z,15.67
2023-05-01T21:20:14.397Z,15.59
2023-05-01T21:22:43.773Z,15.79
2023-05-01T21:25:14.111Z,16.10
2023-05-01T21:27:41.701Z,15.94
2023-05-01T21:30:14.028Z,15.43
2023-05-01T21:32:41.864Z,15.86
2023-05-01T21:35:10.099Z,15.70
2023-05-01T21:37:38.362Z,14.90
2023-05-01T21:40:12.901Z,15.13
2023-05-01T21:42:42.052Z,14.87
2023-05-01T21:45:12.021Z,15.00
2023-05-01T21:47:41.595Z,14.46
2023-05-01T21:50:12.556Z,14.16
2023-05-01T21:52:40.804Z,14.31
2023-05-01T21:55:15.400Z,14.24
2023-05-01T21:57:42.990Z,14.31
2023-05-01T22:00:12.044Z,14.42
2023-05-01T22:02:41.991Z,14.20
2023-05-01T22:05:10.677Z,14.19
2023-05-01T22:07:39.319Z,14.50
2023-05-01T22:10:08.832Z,14.28
2023-05-01T22:12:38.777Z,14.31
2023-05-01T22:15:07.826Z,14.21
2023-05-01T22:17:35.630Z,13.78
2023-05-01T22:20:05.872Z,14.31
2023-05-01T22:22:34.054Z,14.65
2023-05-01T22:25:02.157Z,13.94
2023-05-01T22:27:30.256Z,13.94
2023-05-01T22:30:00.033Z,14.28
2023-05-01T22:32:28.065Z,14.50
2023-05-01T22:34:55.798Z,14.37
2023-05-01T22:37:23.556Z,13.88
2023-05-01T22:39:51.390Z,13.86
2023-05-01T22:42:19.097Z,14.21
2023-05-01T22:44:46.775Z,14.89
2023-05-01T22:47:15.747Z,14.06
2023-05-01T22:49:43.399Z,14.26
2023-05-01T22:52:11.036Z,14.38
2023-05-01T22:54:38.643Z,13.89
2023-05-01T22:57:06.257Z,13.61
2023-05-01T22:59:33.896Z,12.68
2023-05-01T23:02:02.353Z,12.44
2023-05-01T23:04:31.755Z,12.49
2023-05-01T23:07:01.797Z,12.93
2023-05-01T23:09:30.506Z,13.00
2023-05-01T23:11:58.267Z,12.42
2023-05-01T23:14:25.999Z,13.12
2023-05-01T23:16:53.728Z,12.86
2023-05-01T23:19:23.203Z,12.78
2023-05-01T23:22:08.614Z,12.37
2023-05-01T23:24:43.417Z,12.44
2023-05-01T23:27:12.654Z,12.26
2023-05-01T23:29:41.889Z,11.96
2023-05-01T23:32:21.888Z,12.13
2023-05-01T23:34:49.721Z,11.95
2023-05-01T23:37:19.017Z,11.80
2023-05-01T23:39:46.699Z,11.67
2023-05-01T23:42:14.813Z,11.66
2023-05-01T23:44:42.496Z,11.63
2023-05-01T23:47:10.513Z,11.66
2023-05-01T23:49:38.621Z,11.76
2023-05-01T23:52:06.480Z,12.02
2023-05-01T23:54:35.499Z,11.88
2023-05-01T23:57:03.257Z,11.91
2023-05-01T23:59:30.920Z,11.85
